createdAt,value
2023-01-04T00:01:40.579Z,99364.50
2023-01-04T00:06:43.364Z,99360.00
2023-01-04T00:11:46.082Z,99362.38
2023-01-04T00:16:48.984Z,99357.72
2023-01-04T00:21:51.785Z,99354.06
2023-01-04T00:26:54.459Z,99331.78
2023-01-04T00:31:58.119Z,99337.72
2023-01-04T00:37:00.862Z,99332.19
2023-01-04T00:42:06.169Z,99317.94
2023-01-04T00:47:08.925Z,99323.41
2023-01-04T00:52:11.729Z,99312.38
2023-01-04T00:57:14.601Z,99323.41
2023-01-04T01:02:17.719Z,99310.25
2023-01-04T01:07:20.648Z,99288.34
2023-01-04T01:12:23.409Z,99310.75
2023-01-04T01:17:26.048Z,99327.47
2023-01-04T01:22:28.715Z,99321.63
2023-01-04T01:27:31.390Z,99331.53
2023-01-04T01:32:34.123Z,99327.78
2023-01-04T01:37:36.797Z,99338.19
2023-01-04T01:42:39.569Z,99330.94
2023-01-04T01:47:46.648Z,99312.03
2023-01-04T01:52:50.163Z,99327.31
2023-01-04T01:57:54.115Z,99282.47
2023-01-04T02:03:19.622Z,99328.47
2023-01-04T02:08:25.197Z,99318.69
2023-01-04T02:13:49.297Z,99317.28
2023-01-04T02:19:49.125Z,99333.44
2023-01-04T02:25:09.943Z,99343.59
2023-01-04T02:30:43.760Z,99349.47
2023-01-04T02:36:00.145Z,99347.59
2023-01-04T02:41:11.594Z,99332.25
2023-01-04T02:46:27.413Z,99346.03
2023-01-04T02:51:33.580Z,99341.50
2023-01-04T02:57:02.681Z,99336.84
2023-01-04T03:02:52.578Z,99339.28
2023-01-04T03:08:01.937Z,99345.69
2023-01-04T03:13:28.260Z,99347.97
2023-01-04T03:18:35.116Z,99357.53
2023-01-04T03:23:58.119Z,99356.34
2023-01-04T03:29:25.557Z,99368.59
2023-01-04T03:34:46.853Z,99364.72
2023-01-04T03:40:42.371Z,99378.91
2023-01-04T03:46:07.714Z,99351.84
2023-01-04T03:51:26.404Z,99378.47
2023-01-04T03:56:30.161Z,99388.19
2023-01-04T04:01:32.969Z,99394.09
2023-01-04T04:06:54.182Z,99395.88
2023-01-04T04:11:56.979Z,99395.94
2023-01-04T04:17:01.212Z,99400.31
2023-01-04T04:22:04.254Z,99406.13
2023-01-04T04:27:06.964Z,99406.44
2023-01-04T04:32:09.639Z,99414.91
2023-01-04T04:37:12.542Z,99423.19
2023-01-04T04:42:15.215Z,99430.31
2023-01-04T04:47:17.895Z,99432.44
2023-01-04T04:52:20.655Z,99435.25
2023-01-04T04:57:23.372Z,99444.19
2023-01-04T05:02:26.485Z,99433.84
2023-01-04T05:07:29.365Z,99434.25
2023-01-04T05:12:55.836Z,99447.69
2023-01-04T05:18:00.495Z,99434.25
2023-01-04T05:23:03.250Z,99441.16
2023-01-04T05:28:06.869Z,99446.84
2023-01-04T05:33:10.202Z,99442.84
2023-01-04T05:38:13.464Z,99449.72
2023-01-04T05:43:16.930Z,99458.25
2023-01-04T05:48:19.907Z,99461.59
2023-01-04T05:53:22.652Z,99468.72
2023-01-04T05:58:25.545Z,99461.97
2023-01-04T06:03:28.588Z,99467.88
2023-01-04T06:08:31.396Z,99456.44
2023-01-04T06:13:34.237Z,99463.06
2023-01-04T06:18:37.117Z,99464.97
2023-01-04T06:23:39.836Z,99454.22
2023-01-04T06:28:42.526Z,99465.38
2023-01-04T06:33:45.257Z,99462.88
2023-01-04T06:38:49.052Z,99461.84
2023-01-04T06:43:51.750Z,99461.00
2023-01-04T06:48:54.563Z,99458.19
2023-01-04T06:53:57.333Z,99451.66
2023-01-04T06:59:00.290Z,99448.88
2023-01-04T07:04:03.331Z,99460.25
2023-01-04T07:09:06.082Z,99458.22
2023-01-04T07:14:08.825Z,99455.41
2023-01-04T07:19:11.482Z,99457.28
2023-01-04T07:24:14.219Z,99442.72
2023-01-04T07:29:19.585Z,99438.88
2023-01-04T07:34:24.622Z,99435.34
2023-01-04T07:39:27.346Z,99439.59
2023-01-04T07:44:30.074Z,99422.66
2023-01-04T07:49:32.808Z,99462.34
2023-01-04T07:54:35.548Z,99473.69
2023-01-04T07:59:38.243Z,99461.28
2023-01-04T08:04:41.117Z,99462.63
2023-01-04T08:09:43.934Z,99471.56
2023-01-04T08:14:46.653Z,99464.44
2023-01-04T08:19:49.335Z,99466.16
2023-01-04T08:24:52.007Z,99480.19
2023-01-04T08:29:54.689Z,99483.28
2023-01-04T08:34:57.439Z,99500.94
2023-01-04T08:40:00.160Z,99510.28
2023-01-04T08:45:02.932Z,99511.53
2023-01-04T08:50:10.780Z,99500.97
2023-01-04T08:55:16.794Z,99507.13
2023-01-04T09:00:22.199Z,99506.81
2023-01-04T09:05:26.316Z,99503.63
2023-01-04T09:10:29.037Z,99516.38
2023-01-04T09:15:33.172Z,99529.38
2023-01-04T09:20:35.822Z,99495.09
2023-01-04T09:25:41.682Z,99528.44
2023-01-04T09:30:44.376Z,99526.13
2023-01-04T09:35:47.028Z,99534.81
2023-01-04T09:40:54.926Z,99543.06
2023-01-04T09:46:02.071Z,99547.31
2023-01-04T09:51:06.682Z,99539.91
2023-01-04T09:56:24.733Z,99542.44
2023-01-04T10:01:49.835Z,99537.41
2023-01-04T10:06:53.341Z,99538.25
2023-01-04T10:12:26.732Z,99556.38
2023-01-04T10:23:32.307Z,99554.34
2023-01-04T10:28:57.591Z,99568.78
2023-01-04T10:34:29.599Z,99563.38
2023-01-04T10:39:34.230Z,99572.50
2023-01-04T10:44:50.958Z,99571.63
2023-01-04T10:49:59.689Z,99573.34
2023-01-04T10:55:07.265Z,99561.69
2023-01-04T11:00:20.177Z,99602.31
2023-01-04T11:05:43.270Z,99601.59
2023-01-04T11:10:55.364Z,99600.09
2023-01-04T11:15:58.532Z,99604.63
2023-01-04T11:21:04.259Z,99604.50
2023-01-04T11:26:16.742Z,99604.91
2023-01-04T11:31:31.353Z,99599.94
2023-01-04T11:36:38.212Z,99608.06
2023-01-04T11:41:40.652Z,99609.69
2023-01-04T11:46:43.104Z,99617.63
2023-01-04T11:51:45.648Z,99625.00
2023-01-04T11:56:58.042Z,99630.19
2023-01-04T12:02:42.123Z,99626.59
2023-01-04T12:07:41.794Z,99629.84
2023-01-04T12:12:44.252Z,99643.72
2023-01-04T12:17:48.993Z,99653.47
2023-01-04T12:22:51.562Z,99648.50
2023-01-04T12:27:55.891Z,99655.53
2023-01-04T12:32:58.414Z,99646.94
2023-01-04T12:38:03.799Z,99655.06
2023-01-04T12:43:15.275Z,99656.56
2023-01-04T12:48:48.738Z,99651.13
2023-01-04T12:53:52.377Z,99646.09
2023-01-04T12:59:27.169Z,99653.09
2023-01-04T13:04:30.885Z,99651.25
2023-01-04T13:09:33.386Z,99658.00
2023-01-04T13:14:40.067Z,99661.22
2023-01-04T13:19:43.996Z,99659.78
2023-01-04T13:24:46.587Z,99652.53
2023-01-04T13:29:49.890Z,99653.19
2023-01-04T13:34:54.448Z,99653.38
2023-01-04T13:40:17.496Z,99651.94
2023-01-04T13:45:23.073Z,99649.13
2023-01-04T13:50:33.251Z,99642.13
2023-01-04T13:55:39.060Z,99650.75
2023-01-04T14:00:45.501Z,99655.25
2023-01-04T14:05:49.321Z,99648.31
2023-01-04T14:10:51.864Z,99643.84
2023-01-04T14:16:12.960Z,99627.72
2023-01-04T14:21:16.505Z,99625.88
2023-01-04T14:26:32.488Z,99621.06
2023-01-04T14:31:35.969Z,99616.59
2023-01-04T14:36:38.648Z,99605.28
2023-01-04T14:41:42.383Z,99617.59
2023-01-04T14:46:47.458Z,99619.09
2023-01-04T14:52:02.177Z,99607.69
2023-01-04T14:57:09.576Z,99603.19
2023-01-04T15:02:13.368Z,99600.19
2023-01-04T15:07:31.133Z,99607.31
2023-01-04T15:12:33.788Z,99595.97
2023-01-04T15:17:36.443Z,99578.56
2023-01-04T15:22:39.639Z,99577.84
2023-01-04T15:27:43.131Z,99577.75
2023-01-04T15:32:45.907Z,99579.34
2023-01-04T15:37:49.169Z,99576.06
2023-01-04T15:43:00.951Z,99575.94
2023-01-04T15:48:06.063Z,99579.09
2023-01-04T15:53:08.773Z,99573.34
2023-01-04T15:58:11.249Z,99571.19
2023-01-04T16:03:13.783Z,99564.06
2023-01-04T16:08:16.516Z,99563.16
2023-01-04T16:13:19.013Z,99553.19
2023-01-04T16:18:21.422Z,99562.09
2023-01-04T16:23:23.920Z,99560.63
2023-01-04T16:28:26.365Z,99545.63
2023-01-04T16:33:29.079Z,99542.81
2023-01-04T16:38:31.737Z,99543.25
2023-01-04T16:43:36.107Z,99542.28
2023-01-04T16:48:48.830Z,99543.38
2023-01-04T16:53:51.503Z,99538.28
2023-01-04T16:58:54.120Z,99549.88
2023-01-04T17:03:59.440Z,99541.78
2023-01-04T17:09:03.710Z,99545.66
2023-01-04T17:14:06.756Z,99548.38
2023-01-04T17:19:09.955Z,99545.44
2023-01-04T17:24:12.591Z,99545.78
2023-01-04T17:29:15.820Z,99553.88
2023-01-04T17:34:22.511Z,99552.03
2023-01-04T17:39:27.231Z,99557.00
2023-01-04T17:44:29.893Z,99561.00
2023-01-04T17:49:32.806Z,99551.91
2023-01-04T17:54:35.387Z,99563.88
2023-01-04T17:59:38.041Z,99559.13
2023-01-04T18:04:40.533Z,99561.50
2023-01-04T18:09:43.012Z,99556.06
2023-01-04T18:14:45.625Z,99563.88
2023-01-04T18:19:48.108Z,99564.94
2023-01-04T18:24:50.516Z,99567.00
2023-01-04T18:29:53.457Z,99566.03
2023-01-04T18:34:56.023Z,99562.25
2023-01-04T18:39:58.620Z,99568.63
2023-01-04T18:45:01.149Z,99571.88
2023-01-04T18:50:05.302Z,99567.88
2023-01-04T18:55:08.032Z,99569.97
2023-01-04T19:00:10.977Z,99566.22
2023-01-04T19:05:13.800Z,99570.22
2023-01-04T19:10:16.549Z,99574.66
2023-01-04T19:15:19.048Z,99569.69
2023-01-04T19:20:21.479Z,99569.38
2023-01-04T19:25:28.222Z,99541.75
2023-01-04T19:30:31.178Z,99579.44
2023-01-04T19:35:33.822Z,99577.16
2023-01-04T19:40:36.320Z,99584.31
2023-01-04T19:45:39.506Z,99578.88
2023-01-04T19:50:42.068Z,99565.47
2023-01-04T19:55:44.628Z,99566.97
2023-01-04T20:00:54.047Z,99562.09
2023-01-04T20:06:00.932Z,99570.28
2023-01-04T20:11:03.850Z,99577.91
2023-01-04T20:16:06.737Z,99577.38
2023-01-04T20:21:10.885Z,99583.13
2023-01-04T20:26:16.215Z,99580.97
2023-01-04T20:31:19.004Z,99585.28
2023-01-04T20:36:22.737Z,99575.97
2023-01-04T20:41:25.631Z,99562.44
2023-01-04T20:46:32.025Z,99563.41
2023-01-04T20:51:34.523Z,99561.78
2023-01-04T20:56:39.014Z,99565.13
2023-01-04T21:01:41.543Z,99577.59
2023-01-04T21:06:44.301Z,99583.13
2023-01-04T21:11:46.790Z,99577.91
2023-01-04T21:16:49.291Z,99570.56
2023-01-04T21:21:51.796Z,99576.66
2023-01-04T21:26:54.338Z,99585.97
2023-01-04T21:31:56.949Z,99595.75
2023-01-04T21:36:59.571Z,99587.16
2023-01-04T21:42:02.054Z,99590.66
2023-01-04T21:47:04.576Z,99593.22
2023-01-04T21:52:07.121Z,99589.88
2023-01-04T21:57:09.633Z,99602.66
2023-01-04T22:02:22.348Z,99593.56
2023-01-04T22:07:24.960Z,99594.63
2023-01-04T22:12:27.433Z,99599.34
2023-01-04T22:17:30.069Z,99602.78
2023-01-04T22:22:32.567Z,99591.16
2023-01-04T22:27:35.069Z,99590.81
2023-01-04T22:32:37.619Z,99599.66
2023-01-04T22:37:40.052Z,99607.25
2023-01-04T22:42:42.624Z,99612.94
2023-01-04T22:47:45.100Z,99616.88
2023-01-04T22:52:51.085Z,99629.53
2023-01-04T22:57:53.766Z,99619.84
2023-01-04T23:02:56.408Z,99621.34
2023-01-04T23:07:58.899Z,99618.09
2023-01-04T23:13:01.338Z,99623.31
2023-01-04T23:18:03.796Z,99623.06
2023-01-04T23:23:06.260Z,99622.84
2023-01-04T23:28:08.849Z,99627.84
2023-01-04T23:33:11.791Z,99625.97
2023-01-04T23:38:14.268Z,99628.34
2023-01-04T23:43:16.675Z,99618.41
2023-01-04T23:48:19.019Z,99624.31
2023-01-04T23:53:21.668Z,99627.31
2023-01-04T23:58:24.412Z,99631.66
